Time;durP1;ratioP1;P1;durP2;ratioP2;P2;SDS_P1;SDS_P2;PMS_P1;PMS_P2;Temp;Humidity;BMP_temperature;BMP_pressure;BME280_temperature;BME280_humidity;BME280_pressure;Samples;Min_cycle;Max_cycle;Signal;HPM_P1;HPM_P2
2022/11/30 00:00:58;;;;;;;11.50;8.13;;;;;;;6.26;84.12;98460.09;5007434;28;20117;-81
2022/11/30 00:03:24;;;;;;;11.95;8.13;;;;;;;6.21;84.67;98462.38;5003319;28;20129;-81
2022/11/30 00:05:51;;;;;;;11.43;8.00;;;;;;;6.16;84.58;98461.06;5001792;28;20540;-81
2022/11/30 00:08:16;;;;;;;11.65;8.30;;;;;;;6.24;85.47;98460.28;5005140;28;20166;-80
2022/11/30 00:10:42;;;;;;;12.65;8.00;;;;;;;6.24;86.20;98462.88;5003225;28;20113;-80
2022/11/30 00:13:09;;;;;;;10.48;7.80;;;;;;;6.25;86.46;98455.88;5002063;28;20520;-81
2022/11/30 00:15:36;;;;;;;11.85;8.52;;;;;;;6.33;86.13;98455.88;5001988;28;20498;-81
2022/11/30 00:18:02;;;;;;;13.60;8.25;;;;;;;6.34;86.14;98452.28;5003726;28;20049;-80
2022/11/30 00:20:28;;;;;;;15.48;8.98;;;;;;;6.31;86.27;98443.00;5005336;28;20042;-80
2022/11/30 00:22:56;;;;;;;12.98;8.27;;;;;;;6.37;86.63;98449.38;5003321;28;20029;-80
2022/11/30 00:25:24;;;;;;;13.93;8.10;;;;;;;6.42;86.30;98453.09;5014968;28;20040;-81
2022/11/30 00:27:49;;;;;;;12.48;8.55;;;;;;;6.49;86.48;98455.88;5002656;28;20037;-81
2022/11/30 00:30:15;;;;;;;11.82;8.05;;;;;;;6.48;86.50;98451.63;5002642;28;20406;-81
2022/11/30 00:32:40;;;;;;;11.95;8.25;;;;;;;6.52;86.11;98449.50;5003128;28;20042;-81
2022/11/30 00:35:07;;;;;;;11.10;7.88;;;;;;;6.51;85.82;98445.25;5002239;28;20054;-81
2022/11/30 00:37:34;;;;;;;10.63;7.63;;;;;;;6.53;85.87;98457.13;5002525;28;20604;-82
2022/11/30 00:40:00;;;;;;;11.95;7.60;;;;;;;6.51;85.29;98459.09;5007272;28;20406;-80
2022/11/30 00:42:25;;;;;;;11.55;7.50;;;;;;;6.51;85.53;98459.09;5001594;28;20054;-81
2022/11/30 00:44:51;;;;;;;11.82;7.70;;;;;;;6.49;84.47;98455.88;5000302;28;20037;-81
2022/11/30 00:47:18;;;;;;;10.57;7.65;;;;;;;6.52;85.23;98457.31;5003724;28;20080;-80
2022/11/30 00:49:43;;;;;;;12.38;7.93;;;;;;;6.52;84.91;98458.13;5004406;28;20026;-81
2022/11/30 00:52:09;;;;;;;11.43;8.35;;;;;;;6.49;85.30;98465.47;5003642;28;20125;-81
2022/11/30 00:54:34;;;;;;;11.05;7.60;;;;;;;6.42;84.97;98465.31;5004119;28;20095;-81
2022/11/30 00:57:00;;;;;;;11.23;7.88;;;;;;;6.43;85.24;98466.94;5001830;28;20093;-81
2022/11/30 00:59:25;;;;;;;10.60;7.88;;;;;;;6.41;84.17;98471.47;5003892;28;20045;-80
2022/11/30 01:01:53;;;;;;;11.95;7.93;;;;;;;6.34;84.91;98471.31;5001753;28;20164;-80
2022/11/30 01:04:20;;;;;;;12.07;8.02;;;;;;;6.37;85.22;98467.59;5003500;28;20034;-80
2022/11/30 01:06:46;;;;;;;10.70;7.55;;;;;;;6.38;84.68;98464.81;5002594;28;20046;-80
2022/11/30 01:09:11;;;;;;;11.50;7.82;;;;;;;6.39;83.71;98461.22;5004896;28;20057;-80
2022/11/30 01:11:37;;;;;;;11.93;7.65;;;;;;;6.39;84.86;98468.25;5005014;28;20092;-81
2022/11/30 01:14:03;;;;;;;10.85;7.18;;;;;;;6.39;84.64;98470.84;5001180;28;20026;-81
2022/11/30 01:16:32;;;;;;;12.15;8.20;;;;;;;6.38;85.13;98464.81;5002017;28;20524;-81
2022/11/30 01:18:59;;;;;;;9.48;6.72;;;;;;;6.38;84.03;98479.66;5001896;28;20112;-80
2022/11/30 01:21:27;;;;;;;11.25;7.70;;;;;;;6.40;84.65;98478.50;5001642;28;20057;-80
2022/11/30 01:23:54;;;;;;;11.43;8.23;;;;;;;6.48;84.70;98480.28;5004127;28;20033;-80
2022/11/30 01:26:21;;;;;;;12.73;8.00;;;;;;;6.47;83.95;98486.47;5001358;28;20038;-80
2022/11/30 01:28:52;;;;;;;12.15;8.10;;;;;;;6.50;84.27;98487.94;5002111;28;20038;-80
2022/11/30 01:31:19;;;;;;;10.57;7.40;;;;;;;6.42;83.83;98488.78;5002874;28;20034;-81
2022/11/30 01:33:54;;;;;;;10.43;7.82;;;;;;;6.43;83.32;98482.56;5002501;28;20038;-80
2022/11/30 01:36:26;;;;;;;11.05;7.72;;;;;;;6.39;83.82;98483.88;5002298;28;20612;-80
2022/11/30 01:38:56;;;;;;;11.50;7.93;;;;;;;6.36;83.35;98485.03;5001564;28;20033;-80
2022/11/30 01:41:29;;;;;;;12.50;8.07;;;;;;;6.35;83.37;98490.38;5003933;28;20061;-80
2022/11/30 01:44:17;;;;;;;11.50;7.68;;;;;;;6.37;83.96;98496.25;5000432;28;20030;-81
2022/11/30 01:47:06;;;;;;;11.60;7.70;;;;;;;6.16;82.88;98483.69;5002945;28;20046;-80
2022/11/30 01:49:37;;;;;;;12.52;7.85;;;;;;;6.12;82.76;98483.22;5003803;28;20038;-80
2022/11/30 01:52:30;;;;;;;;;;;;;;;6.12;83.50;98485.00;5002205;28;20034;-80
2022/11/30 01:55:08;;;;;;;12.43;7.95;;;;;;;6.15;83.87;98482.88;5002619;28;19988;-80
2022/11/30 01:57:39;;;;;;;11.80;7.57;;;;;;;6.22;83.83;98484.84;5003121;28;20034;-81
2022/11/30 02:00:09;;;;;;;;;;;;;;;6.19;82.50;98490.38;5016297;28;20153;-80
2022/11/30 02:03:10;;;;;;;12.57;7.97;;;;;;;6.19;83.08;98485.19;5001805;28;19917;-81
2022/11/30 02:05:39;;;;;;;11.57;7.80;;;;;;;6.04;82.52;98487.59;5001378;28;20053;-80
2022/11/30 02:08:07;;;;;;;12.77;7.85;;;;;;;5.97;83.21;98487.44;5003419;28;20042;-80
2022/11/30 02:10:37;;;;;;;12.38;7.75;;;;;;;5.90;84.30;98491.63;5001875;28;20109;-80
2022/11/30 02:14:06;;;;;;;13.27;8.17;;;;;;;5.73;83.81;98498.56;5000944;28;20045;-80
2022/11/30 02:17:16;;;;;;;13.57;8.10;;;;;;;5.77;85.04;98496.47;4959775;28;20035;-80
2022/11/30 02:20:12;;;;;;;12.45;8.07;;;;;;;5.90;85.79;98502.03;4959729;28;20039;-80
2022/11/30 02:23:20;;;;;;;14.20;8.52;;;;;;;5.96;84.97;98492.78;5000011;28;20441;-80
2022/11/30 02:26:20;;;;;;;13.15;7.85;;;;;;;6.00;84.50;98492.31;5002696;28;20037;-80
2022/11/30 02:29:18;;;;;;;12.48;7.63;;;;;;;5.98;84.17;98486.44;5019129;28;20072;-80
2022/11/30 02:32:03;;;;;;;13.40;8.23;;;;;;;6.01;84.41;98488.75;5004360;28;20053;-80
2022/11/30 02:34:34;;;;;;;12.35;8.48;;;;;;;6.07;84.71;98495.91;4998644;28;20046;-80
2022/11/30 02:37:01;;;;;;;12.43;7.70;;;;;;;5.99;84.27;98490.66;5020791;28;20029;-80
2022/11/30 02:39:27;;;;;;;12.98;8.25;;;;;;;6.01;84.58;98499.16;5005163;28;20340;-80
2022/11/30 02:41:52;;;;;;;14.52;8.45;;;;;;;6.07;84.98;98490.69;5006246;28;20092;-80
2022/11/30 02:44:21;;;;;;;12.10;8.25;;;;;;;6.10;84.69;98497.38;5001740;28;20034;-81
2022/11/30 02:47:29;;;;;;;13.13;8.07;;;;;;;6.11;85.04;98493.78;5005711;28;20045;-80
2022/11/30 02:50:03;;;;;;;13.35;8.48;;;;;;;6.12;85.22;98500.63;5004399;28;20030;-80
2022/11/30 02:52:31;;;;;;;13.95;8.05;;;;;;;6.13;85.27;98495.25;5004072;28;20458;-80
2022/11/30 02:55:03;;;;;;;12.98;8.10;;;;;;;6.16;84.85;98497.53;5002272;28;20444;-80
2022/11/30 02:57:29;;;;;;;14.68;8.80;;;;;;;6.11;84.80;98497.19;5005990;28;20030;-80
2022/11/30 02:59:56;;;;;;;13.70;8.50;;;;;;;6.08;84.33;98494.94;5008589;28;20044;-80
2022/11/30 03:02:21;;;;;;;15.13;9.18;;;;;;;6.04;84.43;98498.81;5003980;28;20022;-80
2022/11/30 03:04:47;;;;;;;16.67;8.82;;;;;;;6.05;84.82;98505.66;5006437;28;20048;-80
2022/11/30 03:07:12;;;;;;;15.55;9.48;;;;;;;6.02;84.26;98502.56;5004159;28;20433;-80
2022/11/30 03:09:38;;;;;;;18.95;9.57;;;;;;;6.08;84.57;98510.56;5006335;28;20069;-81
2022/11/30 03:12:04;;;;;;;18.83;10.15;;;;;;;6.03;83.94;98502.41;5004222;28;20044;-80
2022/11/30 03:14:29;;;;;;;18.50;9.88;;;;;;;6.07;84.40;98502.91;5004089;28;20457;-80
2022/11/30 03:16:55;;;;;;;17.00;9.63;;;;;;;6.05;84.19;98508.25;5004399;28;20084;-80
2022/11/30 03:19:20;;;;;;;16.30;8.77;;;;;;;5.96;83.94;98509.22;5000120;28;20474;-80
2022/11/30 03:21:46;;;;;;;15.95;9.18;;;;;;;5.84;84.66;98513.09;5003347;28;20044;-80
2022/11/30 03:24:11;;;;;;;19.55;10.00;;;;;;;5.64;84.38;98517.75;5004210;28;20068;-80
2022/11/30 03:26:37;;;;;;;18.27;9.98;;;;;;;5.66;85.44;98510.59;5003591;28;20049;-80
2022/11/30 03:29:03;;;;;;;18.85;9.93;;;;;;;5.72;85.27;98519.56;5002770;28;20054;-80
2022/11/30 03:31:28;;;;;;;17.45;9.65;;;;;;;5.77;85.68;98509.50;5004085;28;20049;-80
2022/11/30 03:33:54;;;;;;;18.27;10.77;;;;;;;5.86;85.98;98511.13;5003477;28;20441;-80
2022/11/30 03:36:19;;;;;;;19.80;10.68;;;;;;;5.95;85.34;98515.41;5004224;28;20113;-80
2022/11/30 03:38:46;;;;;;;19.95;10.73;;;;;;;6.02;85.17;98519.00;5004355;28;20554;-80
2022/11/30 03:41:15;;;;;;;21.63;11.50;;;;;;;6.07;84.16;98515.94;5003246;28;20125;-80
2022/11/30 03:43:45;;;;;;;20.58;11.07;;;;;;;6.01;83.70;98514.78;5002855;28;20714;-81
2022/11/30 03:46:12;;;;;;;22.20;11.10;;;;;;;6.05;83.57;98517.84;5003041;28;20532;-81
2022/11/30 03:48:40;;;;;;;20.88;10.70;;;;;;;6.09;83.91;98514.78;5004795;28;20038;-81
2022/11/30 03:51:08;;;;;;;19.92;10.27;;;;;;;6.07;83.58;98519.34;5005843;28;20038;-81
2022/11/30 03:53:33;;;;;;;19.90;10.43;;;;;;;5.98;82.73;98522.91;5002103;28;20030;-80
2022/11/30 03:56:03;;;;;;;19.17;10.88;;;;;;;6.00;83.10;98522.72;5003552;28;20383;-80
2022/11/30 03:58:32;;;;;;;18.63;10.05;;;;;;;5.98;82.90;98529.91;5004362;28;20443;-80
2022/11/30 04:01:03;;;;;;;20.25;11.02;;;;;;;5.91;82.77;98529.72;5004491;28;20038;-80
2022/11/30 04:03:30;;;;;;;19.98;10.60;;;;;;;5.91;83.15;98516.69;5006067;28;20119;-80
2022/11/30 04:05:56;;;;;;;19.42;9.60;;;;;;;5.78;82.86;98511.13;5003371;28;20052;-80
2022/11/30 04:08:22;;;;;;;19.85;10.45;;;;;;;5.80;83.72;98516.97;5003140;28;20030;-80
2022/11/30 04:10:56;;;;;;;19.30;9.75;;;;;;;5.75;84.01;98514.00;5001458;28;20034;-80
2022/11/30 04:13:23;;;;;;;20.48;9.63;;;;;;;5.72;83.77;98504.75;5002010;28;20529;-80
2022/11/30 04:15:51;;;;;;;16.55;9.65;;;;;;;5.75;84.12;98508.81;5003340;28;20034;-80
2022/11/30 04:18:19;;;;;;;18.33;9.88;;;;;;;5.79;84.15;98510.94;5002452;28;20053;-80
2022/11/30 04:20:45;;;;;;;17.92;9.00;;;;;;;5.83;84.57;98517.47;5006169;28;20385;-80
2022/11/30 04:23:11;;;;;;;18.15;9.60;;;;;;;5.84;84.17;98505.28;5004678;28;20480;-81
2022/11/30 04:25:39;;;;;;;17.67;10.27;;;;;;;5.92;84.50;98505.31;5001963;28;20072;-81
2022/11/30 04:28:05;;;;;;;18.42;9.75;;;;;;;5.91;83.61;98503.69;5002656;28;20038;-80
2022/11/30 04:30:32;;;;;;;17.65;9.48;;;;;;;5.92;83.44;98514.91;5003790;28;20042;-80
2022/11/30 04:32:58;;;;;;;15.63;9.18;;;;;;;5.93;83.50;98511.31;5005006;28;20495;-80
2022/11/30 04:35:24;;;;;;;18.20;9.65;;;;;;;5.91;83.65;98524.50;5001803;28;20049;-80
2022/11/30 04:37:49;;;;;;;17.60;9.48;;;;;;;5.88;84.01;98515.22;5001277;28;20513;-81
2022/11/30 04:40:15;;;;;;;17.48;9.25;;;;;;;5.95;83.34;98525.03;5004742;28;20041;-80
2022/11/30 04:42:40;;;;;;;17.55;9.82;;;;;;;5.96;83.85;98524.84;5005121;28;20477;-80
2022/11/30 04:45:07;;;;;;;16.75;9.23;;;;;;;5.96;82.91;98527.47;4999211;28;20094;-80
2022/11/30 04:47:32;;;;;;;16.83;9.93;;;;;;;5.90;82.56;98533.28;5003092;28;20034;-80
2022/11/30 04:49:58;;;;;;;16.13;9.77;;;;;;;5.94;82.46;98529.41;5004265;28;20036;-80
2022/11/30 04:52:23;;;;;;;18.65;9.82;;;;;;;5.82;82.89;98517.63;5000952;28;20486;-80
2022/11/30 04:54:50;;;;;;;19.05;9.38;;;;;;;5.84;83.51;98521.69;5003795;28;20118;-80
2022/11/30 04:57:16;;;;;;;17.38;9.73;;;;;;;5.75;83.51;98524.44;5002703;28;20029;-80
2022/11/30 04:59:41;;;;;;;17.85;9.73;;;;;;;5.67;83.73;98532.22;5006234;28;20381;-80
2022/11/30 05:02:07;;;;;;;17.83;9.73;;;;;;;5.70;84.02;98539.69;5002536;28;20032;-80
2022/11/30 05:04:32;;;;;;;17.92;9.60;;;;;;;5.76;83.57;98531.28;5019609;28;20040;-80
2022/11/30 05:06:58;;;;;;;17.75;9.73;;;;;;;5.59;84.00;98530.41;5001958;28;20489;-80
2022/11/30 05:09:23;;;;;;;20.75;10.23;;;;;;;5.53;83.94;98528.44;5001718;28;20652;-80
2022/11/30 05:11:49;;;;;;;16.95;8.85;;;;;;;5.28;84.42;98524.91;5003241;28;20046;-80
2022/11/30 05:14:14;;;;;;;20.92;10.25;;;;;;;5.11;85.14;98529.22;5000707;28;20083;-80
2022/11/30 05:16:40;;;;;;;18.23;9.95;;;;;;;4.94;85.51;98530.91;5000825;28;20029;-80
2022/11/30 05:19:05;;;;;;;20.50;10.65;;;;;;;4.88;86.16;98544.50;5001603;28;20058;-80
2022/11/30 05:21:31;;;;;;;19.63;10.55;;;;;;;4.95;87.35;98553.31;5001857;28;20026;-79
2022/11/30 05:23:56;;;;;;;18.58;9.73;;;;;;;5.01;87.04;98547.50;5002748;28;20034;-80
2022/11/30 05:26:22;;;;;;;20.00;10.75;;;;;;;5.06;86.09;98550.47;5001423;28;20038;-80
2022/11/30 05:28:47;;;;;;;21.15;11.05;;;;;;;5.21;86.68;98552.50;5002975;28;20045;-80
2022/11/30 05:31:13;;;;;;;21.05;10.80;;;;;;;5.18;86.42;98539.81;5002276;28;20045;-80
2022/11/30 05:33:38;;;;;;;20.05;10.05;;;;;;;5.21;85.32;98542.91;5002438;28;20053;-80
2022/11/30 05:36:04;;;;;;;17.40;10.27;;;;;;;5.12;84.58;98545.63;5003776;28;20463;-80
2022/11/30 05:38:29;;;;;;;20.73;10.02;;;;;;;5.01;84.98;98549.28;5002614;28;20072;-80
2022/11/30 05:41:00;;;;;;;23.65;11.18;;;;;;;4.95;86.24;98542.09;5002329;28;20529;-79
2022/11/30 05:43:26;;;;;;;21.00;10.85;;;;;;;4.76;86.33;98540.53;5003665;28;20038;-80
2022/11/30 05:45:59;;;;;;;19.13;10.23;;;;;;;4.73;86.86;98538.22;5000454;28;20095;-79
2022/11/30 05:48:25;;;;;;;21.02;10.85;;;;;;;4.67;86.92;98555.22;5017278;28;20084;-80
2022/11/30 05:50:51;;;;;;;24.23;12.25;;;;;;;4.64;87.25;98544.34;5003717;28;20650;-80
2022/11/30 05:53:16;;;;;;;19.95;10.88;;;;;;;4.57;86.75;98544.13;5002012;28;20069;-82
2022/11/30 05:55:42;;;;;;;24.13;11.25;;;;;;;4.51;86.44;98550.72;5001367;28;20439;-82
2022/11/30 05:58:07;;;;;;;20.23;10.50;;;;;;;4.53;86.63;98553.97;5003938;28;20251;-82
2022/11/30 06:00:33;;;;;;;21.20;11.25;;;;;;;4.58;87.18;98556.13;5002725;28;20669;-82
2022/11/30 06:02:58;;;;;;;21.55;10.95;;;;;;;4.58;86.60;98556.13;5003703;28;20033;-82
2022/11/30 06:05:26;;;;;;;18.98;9.93;;;;;;;4.55;86.60;98552.03;5001714;28;20033;-81
2022/11/30 06:07:52;;;;;;;23.77;11.23;;;;;;;4.50;86.00;98554.31;5000406;28;20116;-82
2022/11/30 06:10:18;;;;;;;22.25;10.80;;;;;;;4.49;86.13;98539.66;5001505;28;20096;-82
2022/11/30 06:12:43;;;;;;;24.92;12.38;;;;;;;4.55;85.91;98541.66;5000964;28;20038;-82
2022/11/30 06:15:10;;;;;;;24.88;10.90;;;;;;;4.49;86.31;98531.84;5001447;28;20409;-83
2022/11/30 06:17:36;;;;;;;21.70;11.07;;;;;;;4.72;86.39;98552.19;5002701;28;20046;-82
2022/11/30 06:20:04;;;;;;;20.52;10.75;;;;;;;4.73;85.93;98553.81;5000860;28;20061;-82
2022/11/30 06:22:30;;;;;;;22.02;11.50;;;;;;;4.76;86.16;98558.72;5002671;28;20046;-82
2022/11/30 06:24:55;;;;;;;20.67;11.02;;;;;;;4.86;86.34;98556.00;4998820;28;20034;-82
2022/11/30 06:27:21;;;;;;;23.95;11.95;;;;;;;4.93;85.34;98559.66;5000350;28;20033;-82
2022/11/30 06:29:47;;;;;;;22.63;11.77;;;;;;;4.97;85.44;98561.78;5002064;28;20026;-83
2022/11/30 06:32:12;;;;;;;23.23;11.43;;;;;;;4.99;85.28;98570.25;5001152;28;20038;-82
2022/11/30 06:34:37;;;;;;;21.17;10.85;;;;;;;5.00;85.37;98566.69;5002625;28;20520;-82
2022/11/30 06:37:03;;;;;;;21.52;11.30;;;;;;;5.01;84.53;98568.31;5002061;28;20030;-83
2022/11/30 06:39:28;;;;;;;24.27;11.70;;;;;;;4.92;84.58;98558.84;5002436;28;20070;-83
2022/11/30 06:41:54;;;;;;;20.67;11.45;;;;;;;4.75;84.81;98572.69;5001381;28;20038;-82
2022/11/30 06:44:19;;;;;;;25.75;12.63;;;;;;;4.64;86.05;98570.31;4998300;28;20034;-83
2022/11/30 06:46:45;;;;;;;28.42;13.13;;;;;;;4.71;86.43;98576.53;4999914;28;20117;-82
2022/11/30 06:49:11;;;;;;;25.38;13.35;;;;;;;4.72;85.76;98568.59;5005597;28;20069;-83
2022/11/30 06:51:38;;;;;;;30.73;14.10;;;;;;;4.69;85.29;98574.09;5004146;28;20030;-83
2022/11/30 06:54:07;;;;;;;27.55;13.90;;;;;;;4.69;85.42;98574.09;4999458;28;20042;-82
2022/11/30 06:56:32;;;;;;;26.02;13.77;;;;;;;4.51;85.44;98571.50;5000952;28;20095;-82
2022/11/30 06:58:58;;;;;;;28.92;14.18;;;;;;;4.36;86.25;98572.97;5001475;28;20428;-83
2022/11/30 07:01:23;;;;;;;28.63;14.95;;;;;;;4.36;87.71;98579.97;5004543;28;20065;-82
2022/11/30 07:03:49;;;;;;;32.75;14.80;;;;;;;4.40;87.77;98578.72;5000699;28;20038;-82
2022/11/30 07:06:15;;;;;;;37.20;16.02;;;;;;;4.49;87.80;98583.81;4988389;28;20580;-83
2022/11/30 07:08:42;;;;;;;36.55;14.93;;;;;;;4.59;86.69;98583.75;5002013;28;20037;-83
2022/11/30 07:11:09;;;;;;;26.70;13.48;;;;;;;4.58;86.77;98592.50;4995632;28;20033;-82
2022/11/30 07:13:36;;;;;;;27.70;14.65;;;;;;;4.64;86.66;98578.91;5001193;28;20093;-81
2022/11/30 07:16:07;;;;;;;27.77;13.48;;;;;;;4.74;87.55;98590.06;5003525;28;21692;-81
2022/11/30 07:18:33;;;;;;;30.60;13.30;;;;;;;4.89;87.94;98579.91;5000596;28;20030;-81
2022/11/30 07:21:00;;;;;;;26.70;13.38;;;;;;;5.01;87.11;98588.28;5000460;28;20038;-81
2022/11/30 07:26:11;;;;;;;28.67;13.25;;;;;;;5.02;85.55;98587.31;5003718;28;20036;-82
2022/11/30 07:28:45;;;;;;;28.67;12.40;;;;;;;5.14;86.19;98593.09;5002969;28;20030;-81
2022/11/30 07:31:21;;;;;;;28.58;12.18;;;;;;;5.23;86.20;98595.59;5002598;28;20099;-82
2022/11/30 07:33:47;;;;;;;22.73;11.35;;;;;;;5.31;86.11;98594.81;5003023;28;20426;-81
2022/11/30 07:36:14;;;;;;;24.40;11.38;;;;;;;5.33;85.68;98591.09;5003166;28;20501;-82
2022/11/30 07:38:40;;;;;;;23.17;11.85;;;;;;;5.37;86.16;98594.22;5004619;28;20072;-81
2022/11/30 07:41:06;;;;;;;23.27;11.32;;;;;;;5.41;85.31;98592.94;5003829;28;20643;-81
2022/11/30 07:43:32;;;;;;;24.08;11.48;;;;;;;5.35;84.24;98601.34;5005653;28;20041;-81
2022/11/30 07:45:59;;;;;;;26.33;12.15;;;;;;;5.39;85.06;98597.47;5002793;28;20077;-81
2022/11/30 07:48:24;;;;;;;23.05;11.63;;;;;;;5.44;85.07;98595.22;4986411;28;20026;-81
2022/11/30 07:50:50;;;;;;;21.10;10.75;;;;;;;5.36;84.17;98582.19;5006252;28;20494;-81
2022/11/30 07:53:16;;;;;;;20.23;11.27;;;;;;;5.53;85.20;98590.88;5002969;28;20022;-81
2022/11/30 07:55:42;;;;;;;23.00;11.27;;;;;;;5.51;84.09;98596.22;5002013;28;20619;-81
2022/11/30 07:58:10;;;;;;;26.10;12.00;;;;;;;5.50;83.67;98589.38;5002184;28;20450;-81
2022/11/30 08:00:37;;;;;;;23.90;11.85;;;;;;;5.59;84.71;98592.88;5002400;28;20117;-81
2022/11/30 08:03:03;;;;;;;25.17;11.35;;;;;;;5.62;83.51;98592.53;5001398;28;20034;-81
2022/11/30 08:05:29;;;;;;;24.35;10.75;;;;;;;5.68;83.30;98588.50;5000691;28;20129;-81
2022/11/30 08:07:55;;;;;;;21.83;11.50;;;;;;;5.70;82.82;98596.94;5001485;28;20045;-81
2022/11/30 08:10:23;;;;;;;23.80;11.63;;;;;;;5.75;82.83;98597.31;5000746;28;20030;-81
2022/11/30 08:12:49;;;;;;;25.60;11.57;;;;;;;5.79;83.00;98601.25;5003067;28;20035;-81
2022/11/30 08:15:15;;;;;;;25.65;11.57;;;;;;;5.81;82.92;98609.69;5002955;28;20034;-81
2022/11/30 08:17:41;;;;;;;19.95;11.60;;;;;;;5.83;83.58;98615.59;5000399;28;20060;-81
2022/11/30 08:20:09;;;;;;;20.55;10.82;;;;;;;5.71;81.94;98596.81;5000638;28;20022;-81
2022/11/30 08:22:35;;;;;;;21.08;10.27;;;;;;;5.61;82.39;98607.34;5002371;28;20037;-81
2022/11/30 08:25:01;;;;;;;26.20;11.40;;;;;;;5.66;81.75;98611.28;5001867;28;20429;-81
2022/11/30 08:27:26;;;;;;;24.50;12.50;;;;;;;5.53;82.53;98596.91;5001734;28;20037;-81
2022/11/30 08:29:52;;;;;;;25.75;12.85;;;;;;;5.64;82.48;98595.81;5002656;28;20030;-81
2022/11/30 08:32:18;;;;;;;22.88;11.80;;;;;;;5.57;82.35;98593.00;5001246;28;20039;-81
2022/11/30 08:34:44;;;;;;;25.02;11.77;;;;;;;5.57;82.90;98603.41;5000292;28;20038;-81
2022/11/30 08:37:09;;;;;;;29.20;12.10;;;;;;;5.69;82.99;98618.75;5003055;28;20038;-81
2022/11/30 08:39:35;;;;;;;28.40;12.23;;;;;;;5.66;83.17;98619.06;5002056;28;20030;-81
2022/11/30 08:42:01;;;;;;;29.08;12.10;;;;;;;5.67;81.89;98626.72;5001651;28;20030;-81
2022/11/30 08:44:28;;;;;;;26.58;12.70;;;;;;;5.62;82.04;98621.16;5002354;28;20141;-81
2022/11/30 08:46:54;;;;;;;27.70;12.20;;;;;;;5.66;82.68;98630.31;5001449;28;20105;-81
2022/11/30 08:49:22;;;;;;;25.50;12.25;;;;;;;5.79;83.01;98635.06;5001728;28;20473;-81
2022/11/30 08:51:50;;;;;;;27.83;12.93;;;;;;;5.78;82.30;98628.25;5002210;28;20041;-81
2022/11/30 08:54:15;;;;;;;26.65;12.07;;;;;;;5.73;81.25;98633.09;5003297;28;20041;-81
2022/11/30 08:56:41;;;;;;;29.02;13.18;;;;;;;5.78;82.87;98644.66;5000182;28;20062;-81
2022/11/30 08:59:07;;;;;;;27.83;12.43;;;;;;;5.76;81.90;98640.59;4991793;28;20121;-81
2022/11/30 09:01:33;;;;;;;26.95;13.25;;;;;;;5.76;82.48;98643.22;5004691;28;20034;-81
2022/11/30 09:03:58;;;;;;;26.85;12.82;;;;;;;5.78;82.08;98638.66;5005319;28;20064;-81
2022/11/30 09:06:28;;;;;;;27.42;12.75;;;;;;;5.88;82.68;98645.38;5005159;28;20163;-81
2022/11/30 09:08:57;;;;;;;26.20;12.38;;;;;;;5.83;81.04;98652.84;4996947;28;20033;-81
2022/11/30 09:11:29;;;;;;;28.45;12.43;;;;;;;5.81;80.44;98656.56;5005672;28;20025;-82
2022/11/30 09:13:59;;;;;;;24.58;12.00;;;;;;;5.72;80.88;98662.69;5000411;28;20026;-81
2022/11/30 09:16:25;;;;;;;27.65;12.32;;;;;;;5.54;80.67;98654.97;4999881;28;20099;-81
2022/11/30 09:18:52;;;;;;;27.33;12.23;;;;;;;5.56;81.66;98655.59;5003401;28;20038;-81
2022/11/30 09:21:21;;;;;;;26.48;12.55;;;;;;;5.62;81.52;98668.00;5002091;28;20425;-81
2022/11/30 09:23:48;;;;;;;21.85;10.85;;;;;;;5.68;81.12;98661.38;5001496;28;20740;-81
2022/11/30 09:26:18;;;;;;;24.45;12.18;;;;;;;5.68;81.16;98670.00;4999745;28;20873;-81
2022/11/30 09:28:45;;;;;;;26.88;12.65;;;;;;;5.50;81.56;98675.25;5000979;28;20383;-81
2022/11/30 09:31:15;;;;;;;26.77;12.48;;;;;;;5.56;81.31;98672.03;5000650;28;20046;-81
2022/11/30 09:33:41;;;;;;;23.05;11.15;;;;;;;5.56;80.58;98677.25;5005500;28;20111;-81
2022/11/30 09:36:10;;;;;;;27.83;12.18;;;;;;;5.63;81.14;98675.66;5005704;28;20038;-81
2022/11/30 09:38:37;;;;;;;25.95;12.48;;;;;;;5.70;80.97;98675.03;4999061;28;20046;-81
2022/11/30 09:41:33;;;;;;;24.67;11.93;;;;;;;5.61;80.46;98668.97;5004923;28;20038;-81
2022/11/30 09:44:31;;;;;;;23.58;11.95;;;;;;;5.60;79.99;98655.16;5001097;28;20030;-81
2022/11/30 09:47:06;;;;;;;27.42;11.93;;;;;;;5.55;80.74;98633.97;5002093;28;20040;-80
2022/11/30 09:49:42;;;;;;;22.05;10.32;;;;;;;5.66;80.53;98653.72;5005066;28;20030;-81
2022/11/30 09:52:20;;;;;;;24.05;11.15;;;;;;;5.76;80.73;98656.22;5001747;28;20077;-81
2022/11/30 09:54:46;;;;;;;23.42;11.05;;;;;;;5.68;79.62;98654.38;5001243;28;20697;-81
2022/11/30 09:57:29;;;;;;;25.40;12.48;;;;;;;5.74;80.38;98663.34;5015028;28;20060;-81
2022/11/30 10:00:01;;;;;;;24.73;11.90;;;;;;;5.77;79.55;98652.66;5000689;28;20410;-81
2022/11/30 10:02:36;;;;;;;27.08;11.27;;;;;;;5.65;78.76;98654.69;5004617;28;20493;-81
2022/11/30 10:05:11;;;;;;;23.75;10.77;;;;;;;5.60;79.87;98660.34;5002701;28;20089;-81
2022/11/30 10:08:05;;;;;;;28.80;12.95;;;;;;;5.63;79.99;98657.44;5001470;28;20041;-81
2022/11/30 10:10:37;;;;;;;24.42;11.35;;;;;;;5.66;80.20;98658.13;4997836;28;20045;-81
2022/11/30 10:13:51;;;;;;;23.25;11.63;;;;;;;5.70;79.43;98652.44;5004996;28;20069;-81
2022/11/30 10:16:23;;;;;;;24.83;12.70;;;;;;;5.70;79.47;98654.22;5003799;28;20044;-81
2022/11/30 10:19:32;;;;;;;23.95;11.35;;;;;;;5.70;79.76;98656.81;5002927;28;20056;-81
2022/11/30 10:22:22;;;;;;;25.40;12.23;;;;;;;5.71;79.96;98653.25;5001324;28;20052;-81
2022/11/30 10:25:12;;;;;;;25.98;12.45;;;;;;;5.68;78.79;98651.78;5001297;28;20109;-82
2022/11/30 10:28:11;;;;;;;27.77;12.85;;;;;;;5.72;79.82;98650.50;5004016;28;20038;-81
2022/11/30 10:30:36;;;;;;;29.75;12.73;;;;;;;5.83;79.58;98652.03;5004529;28;20045;-81
2022/11/30 10:33:17;;;;;;;21.45;10.48;;;;;;;5.64;77.94;98656.50;5005503;28;20040;-81
2022/11/30 10:35:53;;;;;;;24.52;12.05;;;;;;;5.67;78.96;98644.13;5004106;28;20033;-81
2022/11/30 10:38:27;;;;;;;22.45;10.70;;;;;;;5.73;79.61;98649.53;5001204;28;20044;-81
2022/11/30 10:41:05;;;;;;;23.63;11.45;;;;;;;5.78;79.03;98649.06;5002119;28;20121;-81
2022/11/30 10:43:42;;;;;;;25.17;11.73;;;;;;;5.82;78.67;98647.78;5002585;28;20470;-81
2022/11/30 10:46:20;;;;;;;23.08;12.07;;;;;;;5.85;79.52;98656.09;5004112;28;20449;-81
2022/11/30 10:48:59;;;;;;;23.60;11.05;;;;;;;5.72;78.11;98649.69;5004324;28;20104;-81
2022/11/30 10:51:26;;;;;;;26.25;11.30;;;;;;;5.79;78.40;98650.69;5003107;28;20375;-82
2022/11/30 10:53:52;;;;;;;23.23;11.07;;;;;;;5.67;77.95;98647.53;5005979;28;20057;-81
2022/11/30 10:56:17;;;;;;;19.77;10.00;;;;;;;5.66;78.24;98643.31;5003007;28;20061;-82
2022/11/30 10:58:55;;;;;;;24.45;10.38;;;;;;;5.53;79.13;98645.53;5003090;28;20052;-81
2022/11/30 11:01:34;;;;;;;30.20;12.27;;;;;;;5.45;80.50;98648.88;5004708;28;20040;-81
2022/11/30 11:04:23;;;;;;;23.00;11.75;;;;;;;5.50;79.90;98649.22;5004289;28;20401;-81
2022/11/30 11:07:07;;;;;;;26.90;12.50;;;;;;;5.57;79.78;98650.25;5002537;28;20045;-80
2022/11/30 11:09:45;;;;;;;29.15;13.35;;;;;;;5.59;78.88;98648.31;5015881;28;20025;-80
2022/11/30 11:12:24;;;;;;;27.95;13.50;;;;;;;5.62;79.15;98645.41;5004627;28;20048;-80
2022/11/30 11:15:27;;;;;;;26.50;13.02;;;;;;;5.51;79.36;98645.66;5002598;28;20026;-80
2022/11/30 11:18:18;;;;;;;25.00;11.73;;;;;;;5.53;79.94;98641.13;5003383;28;20049;-80
2022/11/30 11:20:44;;;;;;;27.92;12.63;;;;;;;5.35;80.30;98645.56;5003838;28;20097;-80
2022/11/30 11:23:34;;;;;;;27.77;12.95;;;;;;;5.38;79.92;98648.66;5003710;28;20125;-80
2022/11/30 11:26:00;;;;;;;31.60;13.68;;;;;;;5.42;78.70;98648.38;5004265;28;20057;-80
2022/11/30 11:28:28;;;;;;;34.28;13.35;;;;;;;5.52;81.06;98652.50;5003211;28;20397;-80
2022/11/30 11:30:56;;;;;;;27.10;12.30;;;;;;;5.44;78.34;98649.84;5004125;28;20046;-80
2022/11/30 11:33:25;;;;;;;26.45;12.20;;;;;;;5.44;78.12;98649.84;5003083;28;20056;-80
2022/11/30 11:36:07;;;;;;;26.27;12.55;;;;;;;5.49;79.17;98644.19;5018545;28;20038;-80
2022/11/30 11:38:45;;;;;;;25.63;12.23;;;;;;;5.53;78.67;98638.53;5000304;28;20121;-80
2022/11/30 11:41:37;;;;;;;27.13;11.82;;;;;;;5.58;78.76;98645.88;5000912;28;20034;-80
2022/11/30 11:44:08;;;;;;;26.60;12.05;;;;;;;5.60;78.93;98642.13;4983486;28;20030;-80
2022/11/30 11:46:57;;;;;;;27.00;12.85;;;;;;;5.68;79.54;98640.53;5002167;28;20061;-80